Aeroporto :
LOGIN :

Iscrizione | Disclaimer

   EN    FR    IT 

 










Sommario :    VFR   VFR Marginale   IFR   IFR Intensivo   IFR Molto Intensivo
Visibilità : 
Base nubi : 
>= 8 km
>= 3000ft
5 / 8 km
1000 / 3000 ft
1500m / 5 km
500 / 1000 ft
800 / 1500m
200 / 500 ft
< 800m
< 200 ft
Simboli :   Temporali  Nebbia  Neve Forte  Precipitazioni Forti  Vento > 20 kt
SIGMETs :   Varie  Temporali  Ghiacco  Turbolenza  Onda orograficha  Ceneri Vulcaniche






- Altitudine del aeroporto : 1036 ft
- Codice IATA : ERF


EDDE - Erfurt

ULTIMO METAR :
  • 180750Z 22007KT 9999 FEW033 03/00 Q1023 NOSIG

METARs OBSOLETI :
  • 180720Z 22008KT 9999 FEW033 03/M00 Q1023 NOSIG
  • 180650Z 22008KT 9999 FEW033 02/M00 Q1023 NOSIG
  • 180620Z 24013KT 9999 FEW030 03/00 Q1023 NOSIG
  • 180550Z 24009KT 9999 FEW030 02/M00 Q1022 NOSIG
  • 180520Z 24010KT 9999 FEW030 03/M00 Q1022 NOSIG

TAF TAF EDDE
Valido dal 18 a 06 ore il 19 a 06 ore UTC


180500Z 1806/1906 23008KT 9999 SCT030
PROB30
TEMPO 1813/1818 4000 SHRASN BKN020CB



MetMap, La meteo Aeronautica in un colpo d'occhio ! - Copyright ORBIFLY Dicembre 2007 - Disclaimer

ORBIFLY MET'MAP TEAM :

Programmazione e sviluppo : Alexandra Zaïnal
Concezione : Baudouin d'Aumeries
Aiuto per la programmazione : Marc-Olivier Méhu
Supporto tecnico e logistico : Manuel Goepfert
Aiuto per la traduzione : Arnaldo La Scala

Contatto : metmap@orbifly.com




FONTI E CREDITI :

   NOAA